createdAt,value
2022-12-03T00:00:23.002Z,30.65
2022-12-03T00:05:21.703Z,30.17
2022-12-03T00:10:20.475Z,36.25
2022-12-03T00:15:19.261Z,37.83
2022-12-03T00:20:21.272Z,38.35
2022-12-03T00:25:20.163Z,37.78
2022-12-03T00:30:18.976Z,36.05
2022-12-03T00:35:17.780Z,38.45
2022-12-03T00:40:16.575Z,30.63
2022-12-03T00:45:15.430Z,34.35
2022-12-03T00:50:14.237Z,36.10
2022-12-03T00:55:13.118Z,38.58
2022-12-03T01:00:13.476Z,31.33
2022-12-03T01:05:12.277Z,32.33
2022-12-03T01:10:11.642Z,30.67
2022-12-03T01:15:10.727Z,32.88
2022-12-03T01:20:10.206Z,39.67
2022-12-03T01:25:09.385Z,31.35
2022-12-03T01:30:08.547Z,38.70
2022-12-03T01:35:07.704Z,33.22
2022-12-03T01:40:08.404Z,33.45
2022-12-03T01:45:11.335Z,33.42
2022-12-03T01:50:42.210Z,34.80
2022-12-03T01:55:46.954Z,31.90
2022-12-03T02:00:47.414Z,35.60
2022-12-03T02:05:46.144Z,32.15
2022-12-03T02:10:44.873Z,35.55
2022-12-03T02:15:43.841Z,31.55
2022-12-03T02:20:59.278Z,35.50
2022-12-03T02:25:57.955Z,27.73
2022-12-03T02:30:56.752Z,33.65
2022-12-03T02:36:00.419Z,33.42
2022-12-03T02:41:10.890Z,29.60
2022-12-03T02:46:09.611Z,32.13
2022-12-03T02:51:10.331Z,33.30
2022-12-03T02:56:09.987Z,31.90
2022-12-03T03:01:09.781Z,36.22
2022-12-03T03:06:09.407Z,31.92
2022-12-03T03:11:08.508Z,33.67
2022-12-03T03:16:08.246Z,30.33
2022-12-03T03:21:07.719Z,31.27
2022-12-03T03:26:08.792Z,33.15
2022-12-03T03:31:09.528Z,32.70
2022-12-03T03:36:09.397Z,35.80
2022-12-03T03:41:11.258Z,30.25
2022-12-03T03:46:11.252Z,35.35
2022-12-03T03:51:12.446Z,35.60
2022-12-03T03:56:12.048Z,31.45
2022-12-03T04:01:13.258Z,31.88
2022-12-03T04:06:12.062Z,31.70
2022-12-03T04:11:29.318Z,33.47
2022-12-03T04:16:28.032Z,29.30
2022-12-03T04:21:45.230Z,28.42
2022-12-03T04:27:02.556Z,28.23
2022-12-03T04:32:19.928Z,31.42
2022-12-03T04:37:18.781Z,30.48
2022-12-03T04:42:17.612Z,26.55
2022-12-03T04:47:21.616Z,31.55
2022-12-03T04:52:21.132Z,30.63
2022-12-03T04:57:19.853Z,24.30
2022-12-03T05:02:18.670Z,28.23
2022-12-03T05:07:17.449Z,25.77
2022-12-03T05:12:16.171Z,27.80
2022-12-03T05:17:14.882Z,31.08
2022-12-03T05:22:13.568Z,54.00
2022-12-03T05:27:12.272Z,24.00
2022-12-03T05:32:11.019Z,27.60
2022-12-03T05:37:09.921Z,27.10
2022-12-03T05:42:28.539Z,30.52
2022-12-03T05:47:27.903Z,32.03
2022-12-03T05:52:26.628Z,33.15
2022-12-03T05:57:26.156Z,29.48
2022-12-03T06:02:24.953Z,29.23
2022-12-03T06:07:23.760Z,30.75
2022-12-03T06:12:22.643Z,32.35
2022-12-03T06:17:21.957Z,29.08
2022-12-03T06:22:20.802Z,30.98
2022-12-03T06:27:19.553Z,29.67
2022-12-03T06:32:18.314Z,30.02
2022-12-03T06:37:16.997Z,35.38
2022-12-03T06:42:15.767Z,27.30
2022-12-03T06:47:14.543Z,28.48
2022-12-03T06:52:13.295Z,29.27
2022-12-03T06:57:12.072Z,27.85
2022-12-03T07:02:12.682Z,31.23
2022-12-03T07:07:11.492Z,33.53
2022-12-03T07:12:11.016Z,30.13
2022-12-03T07:17:09.715Z,33.22
2022-12-03T07:22:08.552Z,27.25
2022-12-03T07:27:07.641Z,29.45
2022-12-03T07:32:06.387Z,31.30
2022-12-03T07:37:05.094Z,31.35
2022-12-03T07:42:04.001Z,28.05
2022-12-03T07:47:02.958Z,32.10
2022-12-03T07:52:01.843Z,29.25
2022-12-03T07:57:01.789Z,30.27
2022-12-03T08:02:00.894Z,28.15
2022-12-03T08:06:59.883Z,29.38
2022-12-03T08:12:01.403Z,28.83
2022-12-03T08:17:00.181Z,30.58
2022-12-03T08:22:01.532Z,30.15
2022-12-03T08:27:01.010Z,34.90
2022-12-03T08:31:59.870Z,25.98
2022-12-03T08:37:09.002Z,32.13
2022-12-03T08:42:30.528Z,31.52
2022-12-03T08:47:29.582Z,30.25
2022-12-03T08:52:33.533Z,30.17
2022-12-03T08:57:34.898Z,33.97
2022-12-03T09:02:34.664Z,32.10
2022-12-03T09:07:33.549Z,31.83
2022-12-03T09:12:32.402Z,29.38
2022-12-03T09:17:31.111Z,31.25
2022-12-03T09:22:29.989Z,29.73
2022-12-03T09:27:28.680Z,29.83
2022-12-03T09:32:27.507Z,36.13
2022-12-03T09:37:26.349Z,32.22
2022-12-03T09:42:25.972Z,32.88
2022-12-03T09:47:25.311Z,32.75
2022-12-03T09:52:28.945Z,31.10
2022-12-03T09:57:27.697Z,35.53
2022-12-03T10:02:29.926Z,36.70
2022-12-03T10:07:28.764Z,28.85
2022-12-03T10:12:27.777Z,32.97
2022-12-03T10:17:29.080Z,32.05
2022-12-03T10:22:27.865Z,35.75
2022-12-03T10:27:30.711Z,32.90
2022-12-03T10:32:42.023Z,32.88
2022-12-03T10:38:02.716Z,31.42
2022-12-03T10:43:19.608Z,31.90
2022-12-03T10:48:27.536Z,38.17
2022-12-03T10:53:30.201Z,36.88
2022-12-03T10:58:36.297Z,40.58
2022-12-03T11:03:36.366Z,34.78
2022-12-03T11:08:37.096Z,41.20
2022-12-03T11:13:35.851Z,37.30
2022-12-03T11:18:37.724Z,35.88
2022-12-03T11:23:45.614Z,35.60
2022-12-03T11:28:47.379Z,35.88
2022-12-03T11:33:46.083Z,38.45
2022-12-03T11:38:52.898Z,38.13
2022-12-03T11:43:52.498Z,44.83
2022-12-03T11:48:53.339Z,46.53
2022-12-03T11:53:55.258Z,36.42
2022-12-03T11:59:02.309Z,36.80
2022-12-03T12:04:01.268Z,39.20
2022-12-03T12:09:01.079Z,36.60
2022-12-03T12:14:12.955Z,37.35
2022-12-03T12:19:38.014Z,36.85
2022-12-03T12:24:43.560Z,36.38
2022-12-03T12:29:45.768Z,41.20
2022-12-03T12:34:50.429Z,38.45
2022-12-03T12:39:53.724Z,35.53
2022-12-03T12:49:52.009Z,33.42
2022-12-03T12:54:50.865Z,38.17
2022-12-03T12:59:50.835Z,34.80
2022-12-03T13:04:49.662Z,36.40
2022-12-03T13:09:54.663Z,38.97
2022-12-03T13:14:59.341Z,37.38
2022-12-03T13:20:07.255Z,36.40
2022-12-03T13:25:59.223Z,42.08
2022-12-03T13:31:00.947Z,39.03
2022-12-03T13:41:03.799Z,35.58
2022-12-03T13:46:03.215Z,38.88
2022-12-03T13:51:14.889Z,32.65
2022-12-03T13:56:30.908Z,30.10
2022-12-03T14:01:30.293Z,29.02
2022-12-03T14:06:29.086Z,21.40
2022-12-03T14:11:46.556Z,18.30
2022-12-03T14:16:45.357Z,19.63
2022-12-03T14:21:44.160Z,19.95
2022-12-03T14:26:42.907Z,22.33
2022-12-03T14:31:41.807Z,21.55
2022-12-03T14:36:40.569Z,23.05
2022-12-03T14:41:57.774Z,21.38
2022-12-03T14:46:57.494Z,25.05
2022-12-03T14:51:56.468Z,22.42
2022-12-03T14:56:55.221Z,21.70
2022-12-03T15:01:54.453Z,21.55
2022-12-03T15:06:53.395Z,20.27
2022-12-03T15:11:52.243Z,22.80
2022-12-03T15:16:51.120Z,23.27
2022-12-03T15:21:49.949Z,23.80
2022-12-03T15:26:49.625Z,22.13
2022-12-03T15:31:48.421Z,23.88
2022-12-03T15:36:47.210Z,25.52
2022-12-03T15:41:46.011Z,22.20
2022-12-03T15:46:44.999Z,23.15
2022-12-03T15:51:43.900Z,25.05
2022-12-03T15:56:42.770Z,21.70
2022-12-03T16:01:41.828Z,26.42
2022-12-03T16:06:40.624Z,23.80
2022-12-03T16:11:39.795Z,21.08
2022-12-03T16:16:38.939Z,23.20
2022-12-03T16:21:38.707Z,25.13
2022-12-03T16:26:37.969Z,22.02
2022-12-03T16:31:37.105Z,23.92
2022-12-03T16:36:36.871Z,23.30
2022-12-03T16:41:35.637Z,18.48
2022-12-03T16:46:37.296Z,25.73
2022-12-03T16:51:36.343Z,22.10
2022-12-03T16:56:35.249Z,21.60
2022-12-03T17:01:34.362Z,22.63
2022-12-03T17:06:36.678Z,22.95
2022-12-03T17:11:37.978Z,20.52
2022-12-03T17:16:36.909Z,18.85
2022-12-03T17:21:35.886Z,22.17
2022-12-03T17:26:34.857Z,21.80
2022-12-03T17:31:39.958Z,19.17
2022-12-03T17:36:40.760Z,21.33
2022-12-03T17:41:39.469Z,21.10
2022-12-03T17:46:39.217Z,22.02
2022-12-03T17:51:41.379Z,26.55
2022-12-03T17:56:43.577Z,22.85
2022-12-03T18:01:43.776Z,21.02
2022-12-03T18:06:43.168Z,20.02
2022-12-03T18:11:42.094Z,23.15
2022-12-03T18:16:41.411Z,22.23
2022-12-03T18:21:40.418Z,26.00
2022-12-03T18:26:54.428Z,22.45
2022-12-03T18:31:53.323Z,24.27
2022-12-03T18:36:52.621Z,25.55
2022-12-03T18:41:52.112Z,23.25
2022-12-03T18:46:53.859Z,24.02
2022-12-03T18:51:58.927Z,27.92
2022-12-03T18:56:57.966Z,24.40
2022-12-03T19:01:56.849Z,23.33
2022-12-03T19:06:55.775Z,23.13
2022-12-03T19:11:54.665Z,24.15
2022-12-03T19:16:53.548Z,24.95
2022-12-03T19:21:52.669Z,21.60
2022-12-03T19:26:54.813Z,22.83
2022-12-03T19:31:53.973Z,22.33
2022-12-03T19:36:52.960Z,19.83
2022-12-03T19:41:54.611Z,20.80
2022-12-03T19:46:54.237Z,17.85
2022-12-03T19:51:53.831Z,18.77
2022-12-03T19:56:52.746Z,17.45
2022-12-03T20:01:51.655Z,20.02
2022-12-03T20:06:50.636Z,16.17
2022-12-03T20:11:54.483Z,17.73
2022-12-03T20:16:53.496Z,21.38
2022-12-03T20:21:54.379Z,17.20
2022-12-03T20:26:55.418Z,19.35
2022-12-03T20:31:54.229Z,19.58
2022-12-03T20:36:53.094Z,18.33
2022-12-03T20:41:52.040Z,19.88
2022-12-03T20:46:50.826Z,18.27
2022-12-03T20:51:50.295Z,13.32
2022-12-03T20:56:49.386Z,17.15
2022-12-03T21:01:48.231Z,15.93
2022-12-03T21:06:47.038Z,28.27
2022-12-03T21:11:45.877Z,38.08
2022-12-03T21:22:08.188Z,34.60
2022-12-03T21:27:06.920Z,36.63
2022-12-03T21:32:05.658Z,33.38
2022-12-03T21:37:04.602Z,37.78
2022-12-03T21:42:19.123Z,37.33
2022-12-03T21:47:22.526Z,35.03
2022-12-03T21:52:21.253Z,39.05
2022-12-03T21:57:20.361Z,37.25
2022-12-03T22:02:19.233Z,38.28
2022-12-03T22:07:18.021Z,36.67
2022-12-03T22:12:16.809Z,40.65
2022-12-03T22:17:15.702Z,44.35
2022-12-03T22:22:14.476Z,43.28
2022-12-03T22:27:14.576Z,44.58
2022-12-03T22:32:13.288Z,44.72
2022-12-03T22:37:12.223Z,37.28
2022-12-03T22:42:11.043Z,41.03
2022-12-03T22:47:09.791Z,39.70
2022-12-03T22:52:08.574Z,45.22
2022-12-03T22:57:07.309Z,43.83
2022-12-03T23:02:06.031Z,40.97
2022-12-03T23:07:06.106Z,47.63
2022-12-03T23:12:05.166Z,39.72
2022-12-03T23:17:04.782Z,41.17
2022-12-03T23:22:03.723Z,40.90
2022-12-03T23:27:02.502Z,39.72
2022-12-03T23:32:01.169Z,35.65
2022-12-03T23:36:59.902Z,38.40
2022-12-03T23:41:58.543Z,48.50
2022-12-03T23:46:57.447Z,41.95
2022-12-03T23:51:56.278Z,43.55
2022-12-03T23:56:55.025Z,40.15
